createdAt,value
2022-07-28T00:00:04.680Z,4.22
2022-07-28T00:01:25.059Z,4.13
2022-07-28T00:02:41.560Z,3.99
2022-07-28T00:03:57.920Z,3.84
2022-07-28T00:05:14.305Z,3.92
2022-07-28T00:06:30.777Z,3.96
2022-07-28T00:07:47.476Z,3.89
2022-07-28T00:09:03.858Z,4.20
2022-07-28T00:10:22.238Z,3.97
2022-07-28T00:11:50.262Z,3.96
2022-07-28T00:12:59.875Z,3.25
2022-07-28T00:14:16.961Z,3.72
2022-07-28T00:15:35.373Z,3.53
2022-07-28T00:16:51.796Z,3.63
2022-07-28T00:18:10.171Z,3.60
2022-07-28T00:19:26.543Z,3.99
2022-07-28T00:20:43.211Z,3.63
2022-07-28T00:21:59.563Z,3.99
2022-07-28T00:23:15.954Z,3.99
2022-07-28T00:24:32.334Z,3.66
2022-07-28T00:25:49.665Z,4.23
2022-07-28T00:27:06.306Z,4.07
2022-07-28T00:28:22.933Z,4.15
2022-07-28T00:29:50.523Z,4.14
2022-07-28T00:31:05.113Z,4.31
2022-07-28T00:32:21.764Z,4.89
2022-07-28T00:33:38.508Z,4.69
2022-07-28T00:34:55.819Z,4.66
2022-07-28T00:36:13.369Z,4.22
2022-07-28T00:37:29.730Z,4.37
2022-07-28T00:38:48.804Z,4.03
2022-07-28T00:40:06.528Z,4.31
2022-07-28T00:41:23.476Z,4.32
2022-07-28T00:42:39.812Z,4.19
2022-07-28T00:43:58.632Z,4.64
2022-07-28T00:45:15.013Z,4.56
2022-07-28T00:46:31.758Z,4.72
2022-07-28T00:47:48.135Z,5.02
2022-07-28T00:49:04.581Z,5.11
2022-07-28T00:50:23.416Z,5.31
2022-07-28T00:51:39.825Z,5.21
2022-07-28T00:52:56.478Z,5.67
2022-07-28T00:54:13.666Z,5.44
2022-07-28T00:55:30.438Z,5.30
2022-07-28T00:56:46.819Z,5.14
2022-07-28T00:58:03.280Z,5.32
2022-07-28T00:59:19.940Z,5.54
2022-07-28T01:00:38.286Z,5.62
2022-07-28T01:01:55.954Z,5.69
2022-07-28T01:03:12.456Z,5.62
2022-07-28T01:04:28.833Z,5.65
2022-07-28T01:05:45.473Z,5.74
2022-07-28T01:07:02.793Z,5.16
2022-07-28T01:08:19.154Z,5.84
2022-07-28T01:09:35.562Z,5.91
2022-07-28T01:10:51.917Z,5.61
2022-07-28T01:12:08.575Z,5.71
2022-07-28T01:13:26.320Z,6.44
2022-07-28T01:14:44.216Z,5.94
2022-07-28T01:16:00.617Z,5.83
2022-07-28T01:17:16.977Z,5.86
2022-07-28T01:18:33.618Z,5.86
2022-07-28T01:19:50.019Z,5.91
2022-07-28T01:21:08.339Z,5.88
2022-07-28T01:22:24.730Z,5.88
2022-07-28T01:23:41.080Z,5.78
2022-07-28T01:24:59.732Z,5.93
2022-07-28T01:26:16.082Z,5.78
2022-07-28T01:27:32.469Z,6.19
2022-07-28T01:28:48.823Z,5.97
2022-07-28T01:30:05.232Z,6.35
2022-07-28T01:31:21.926Z,6.40
2022-07-28T01:32:38.305Z,6.37
2022-07-28T01:33:54.666Z,6.24
2022-07-28T01:35:11.096Z,6.54
2022-07-28T01:36:27.454Z,6.85
2022-07-28T01:37:44.157Z,6.71
2022-07-28T01:39:02.481Z,6.97
2022-07-28T01:40:20.818Z,7.09
2022-07-28T01:41:37.178Z,7.38
2022-07-28T01:42:53.663Z,7.07
2022-07-28T01:44:10.537Z,6.95
2022-07-28T01:45:27.110Z,6.81
2022-07-28T01:46:43.510Z,7.23
2022-07-28T01:47:59.883Z,7.35
2022-07-28T01:49:16.310Z,7.49
2022-07-28T01:50:32.942Z,7.51
2022-07-28T01:51:49.305Z,7.64
2022-07-28T01:53:05.715Z,7.84
2022-07-28T01:54:22.109Z,7.88
2022-07-28T01:55:38.475Z,7.90
2022-07-28T01:56:55.127Z,7.62
2022-07-28T01:58:11.536Z,7.67
2022-07-28T01:59:27.897Z,7.52
2022-07-28T02:00:50.297Z,7.27
2022-07-28T02:02:06.748Z,7.66
2022-07-28T02:03:23.437Z,7.59
2022-07-28T02:04:39.882Z,7.64
2022-07-28T02:05:56.260Z,7.51
2022-07-28T02:07:12.630Z,7.76
2022-07-28T02:08:29.341Z,7.38
2022-07-28T02:09:45.981Z,7.72
2022-07-28T02:11:02.368Z,7.95
2022-07-28T02:12:18.771Z,7.85
2022-07-28T02:13:35.211Z,8.35
2022-07-28T02:14:51.562Z,8.40
2022-07-28T02:16:08.296Z,8.53
2022-07-28T02:17:24.675Z,8.53
2022-07-28T02:18:43.063Z,8.46
2022-07-28T02:20:01.376Z,8.52
2022-07-28T02:21:17.792Z,8.61
2022-07-28T02:22:34.426Z,8.52
2022-07-28T02:23:50.796Z,8.48
2022-07-28T02:25:07.159Z,8.41
2022-07-28T02:26:23.999Z,8.20
2022-07-28T02:27:40.358Z,8.50
2022-07-28T02:28:57.016Z,8.59
2022-07-28T02:30:13.379Z,8.71
2022-07-28T02:31:29.816Z,8.83
2022-07-28T02:32:46.169Z,8.72
2022-07-28T02:34:04.627Z,8.75
2022-07-28T02:35:24.311Z,8.61
2022-07-28T02:36:44.336Z,8.75
2022-07-28T02:38:03.802Z,8.69
2022-07-28T02:39:20.181Z,8.87
2022-07-28T02:40:36.913Z,8.78
2022-07-28T02:41:53.319Z,8.54
2022-07-28T02:43:09.675Z,8.86
2022-07-28T02:44:26.055Z,8.89
2022-07-28T02:45:42.456Z,8.68
2022-07-28T02:46:59.108Z,9.17
2022-07-28T02:48:15.476Z,9.44
2022-07-28T02:49:31.847Z,9.61
2022-07-28T02:50:50.221Z,9.25
2022-07-28T02:52:06.589Z,9.41
2022-07-28T02:53:23.230Z,9.30
2022-07-28T02:54:39.599Z,9.18
2022-07-28T02:55:55.992Z,9.54
2022-07-28T02:57:12.361Z,9.27
2022-07-28T02:58:28.721Z,9.52
2022-07-28T02:59:45.411Z,9.47
2022-07-28T03:01:01.830Z,9.77
2022-07-28T03:02:18.204Z,9.35
2022-07-28T03:03:34.593Z,9.24
2022-07-28T03:04:50.991Z,9.52
2022-07-28T03:06:07.665Z,9.69
2022-07-28T03:07:24.054Z,9.42
2022-07-28T03:08:40.451Z,9.26
2022-07-28T03:09:56.827Z,9.25
2022-07-28T03:11:13.177Z,9.30
2022-07-28T03:12:29.838Z,9.53
2022-07-28T03:13:46.218Z,9.07
2022-07-28T03:15:02.602Z,9.36
2022-07-28T03:16:19.028Z,8.98
2022-07-28T03:17:35.820Z,9.43
2022-07-28T03:18:52.541Z,8.96
2022-07-28T03:20:08.921Z,9.04
2022-07-28T03:21:25.291Z,8.97
2022-07-28T03:22:41.670Z,9.26
2022-07-28T03:23:58.071Z,9.18
2022-07-28T03:25:14.725Z,9.36
2022-07-28T03:26:31.119Z,9.62
2022-07-28T03:27:47.524Z,9.77
2022-07-28T03:29:03.891Z,9.46
2022-07-28T03:30:20.595Z,9.73
2022-07-28T03:31:37.275Z,9.41
2022-07-28T03:32:53.656Z,9.74
2022-07-28T03:34:10.025Z,10.06
2022-07-28T03:35:26.449Z,9.96
2022-07-28T03:36:42.808Z,9.70
2022-07-28T03:37:59.471Z,9.50
2022-07-28T03:39:15.832Z,9.98
2022-07-28T03:40:32.247Z,9.73
2022-07-28T03:41:51.062Z,9.61
2022-07-28T03:43:07.461Z,9.43
2022-07-28T03:44:27.881Z,9.37
2022-07-28T03:45:46.857Z,9.39
2022-07-28T03:47:05.413Z,9.61
2022-07-28T03:48:21.843Z,9.74
2022-07-28T03:49:38.204Z,9.61
2022-07-28T03:50:56.924Z,9.27
2022-07-28T03:52:13.289Z,9.46
2022-07-28T03:53:29.655Z,8.89
2022-07-28T03:54:47.974Z,8.64
2022-07-28T03:56:05.373Z,8.56
2022-07-28T03:57:21.737Z,8.67
2022-07-28T03:58:38.167Z,8.85
2022-07-28T03:59:56.498Z,8.77
2022-07-28T04:01:12.937Z,8.49
2022-07-28T04:02:31.290Z,8.70
2022-07-28T04:03:47.969Z,8.68
2022-07-28T04:05:04.330Z,8.64
2022-07-28T04:06:20.750Z,8.45
2022-07-28T04:07:37.112Z,8.54
2022-07-28T04:08:55.442Z,8.68
2022-07-28T04:10:14.044Z,9.12
2022-07-28T04:11:32.402Z,8.96
2022-07-28T04:12:48.772Z,9.27
2022-07-28T04:14:09.261Z,9.06
2022-07-28T04:15:29.324Z,8.98
2022-07-28T04:16:46.053Z,8.80
2022-07-28T04:18:02.455Z,8.61
2022-07-28T04:19:20.787Z,8.81
2022-07-28T04:20:39.181Z,8.82
2022-07-28T04:21:55.570Z,8.54
2022-07-28T04:23:12.289Z,8.44
2022-07-28T04:24:30.698Z,8.80
2022-07-28T04:25:47.058Z,8.85
2022-07-28T04:27:05.441Z,8.36
2022-07-28T04:28:24.335Z,8.54
2022-07-28T04:29:41.031Z,8.33
2022-07-28T04:30:59.444Z,8.75
2022-07-28T04:32:17.873Z,8.48
2022-07-28T04:33:36.221Z,8.37
2022-07-28T04:34:54.574Z,8.75
2022-07-28T04:36:12.185Z,8.72
2022-07-28T04:37:32.431Z,9.17
2022-07-28T04:38:51.060Z,9.12
2022-07-28T04:40:09.428Z,8.99
2022-07-28T04:41:27.778Z,8.85
2022-07-28T04:42:44.442Z,9.25
2022-07-28T04:44:02.748Z,8.90
2022-07-28T04:45:23.909Z,8.80
2022-07-28T04:46:42.378Z,8.52
2022-07-28T04:48:00.711Z,8.50
2022-07-28T04:49:19.407Z,8.67
2022-07-28T04:50:37.244Z,8.93
2022-07-28T04:51:57.445Z,8.84
2022-07-28T04:53:15.782Z,8.86
2022-07-28T04:54:33.279Z,8.91
2022-07-28T04:55:54.736Z,8.87
2022-07-28T04:57:12.816Z,9.21
2022-07-28T04:58:31.175Z,9.07
2022-07-28T04:59:50.095Z,9.17
2022-07-28T05:01:09.035Z,9.38
2022-07-28T05:02:27.856Z,9.26
2022-07-28T05:03:47.985Z,9.10
2022-07-28T05:05:05.502Z,9.28
2022-07-28T05:06:24.385Z,9.22
2022-07-28T05:07:41.752Z,9.38
2022-07-28T05:09:02.647Z,9.22
2022-07-28T05:10:21.031Z,9.08
2022-07-28T05:11:42.377Z,9.15
2022-07-28T05:13:00.285Z,9.18
2022-07-28T05:14:17.063Z,8.77
2022-07-28T05:15:34.218Z,9.31
2022-07-28T05:16:50.733Z,9.24
2022-07-28T05:18:09.611Z,9.12
2022-07-28T05:19:26.920Z,9.15
2022-07-28T05:20:44.303Z,8.98
2022-07-28T05:22:01.997Z,8.94
2022-07-28T05:23:19.443Z,8.82
2022-07-28T05:24:38.500Z,8.57
2022-07-28T05:25:55.843Z,8.60
2022-07-28T05:27:12.461Z,9.18
2022-07-28T05:28:30.136Z,8.90
2022-07-28T05:29:48.135Z,8.84
2022-07-28T05:31:07.168Z,8.75
2022-07-28T05:32:24.583Z,8.33
2022-07-28T05:33:43.456Z,8.63
2022-07-28T05:35:00.923Z,8.53
2022-07-28T05:36:19.288Z,8.63
2022-07-28T05:37:36.798Z,8.96
2022-07-28T05:38:54.661Z,8.83
2022-07-28T05:40:13.996Z,8.94
2022-07-28T05:41:32.971Z,8.47
2022-07-28T05:42:51.363Z,8.80
2022-07-28T05:44:08.804Z,8.95
2022-07-28T05:45:26.427Z,8.87
2022-07-28T05:46:47.194Z,8.77
2022-07-28T05:48:07.430Z,9.00
2022-07-28T05:49:34.137Z,9.12
2022-07-28T05:50:56.688Z,8.92
2022-07-28T05:52:14.950Z,9.35
2022-07-28T05:53:35.652Z,9.27
2022-07-28T05:54:53.085Z,9.27
2022-07-28T05:56:12.490Z,9.08
2022-07-28T05:57:31.267Z,8.87
2022-07-28T05:58:50.633Z,9.10
2022-07-28T06:00:08.289Z,8.86
2022-07-28T06:01:26.464Z,9.33
2022-07-28T06:02:44.033Z,9.35
2022-07-28T06:04:26.767Z,9.13
2022-07-28T06:05:26.143Z,9.45
2022-07-28T06:06:43.621Z,9.21
2022-07-28T06:08:02.183Z,9.47
2022-07-28T06:09:20.710Z,8.94
2022-07-28T06:10:39.644Z,8.96
2022-07-28T06:11:58.612Z,8.89
2022-07-28T06:13:19.804Z,9.06
2022-07-28T06:14:37.154Z,9.21
2022-07-28T06:15:56.186Z,8.73
2022-07-28T06:17:13.526Z,8.63
2022-07-28T06:18:31.399Z,8.99
2022-07-28T06:19:52.746Z,8.51
2022-07-28T06:21:11.669Z,8.79
2022-07-28T06:22:29.008Z,8.88
2022-07-28T06:23:46.483Z,8.73
2022-07-28T06:25:05.654Z,8.98
2022-07-28T06:26:23.366Z,8.98
2022-07-28T06:27:40.306Z,9.26
2022-07-28T06:28:57.613Z,8.97
2022-07-28T06:30:16.011Z,9.33
2022-07-28T06:31:35.183Z,9.69
2022-07-28T06:32:54.703Z,9.31
2022-07-28T06:34:11.526Z,9.52
2022-07-28T06:35:30.775Z,9.79
2022-07-28T06:36:52.066Z,9.95
2022-07-28T06:38:09.765Z,9.82
2022-07-28T06:39:28.459Z,9.96
2022-07-28T06:40:48.298Z,9.46
2022-07-28T06:42:07.289Z,9.20
2022-07-28T06:43:26.647Z,8.91
2022-07-28T06:44:58.365Z,8.81
2022-07-28T06:46:07.305Z,9.04
2022-07-28T06:47:24.906Z,9.07
2022-07-28T06:48:42.375Z,8.98
2022-07-28T06:50:00.453Z,9.22
2022-07-28T06:51:18.060Z,9.45
2022-07-28T06:52:35.690Z,9.86
2022-07-28T06:54:02.106Z,9.36
2022-07-28T06:55:20.270Z,9.41
2022-07-28T06:56:38.304Z,9.23
2022-07-28T06:57:57.250Z,9.12
2022-07-28T06:59:17.450Z,8.87
2022-07-28T07:00:35.386Z,9.28
2022-07-28T07:01:52.089Z,9.30
2022-07-28T07:03:10.427Z,9.00
2022-07-28T07:04:29.514Z,9.07
2022-07-28T07:05:51.674Z,9.23
2022-07-28T07:09:01.274Z,9.41
2022-07-28T07:10:19.809Z,8.86
2022-07-28T07:11:37.207Z,9.20
2022-07-28T07:12:56.423Z,9.11
2022-07-28T07:14:14.808Z,9.20
2022-07-28T07:15:35.004Z,9.35
2022-07-28T07:16:52.175Z,9.87
2022-07-28T07:18:09.954Z,9.84
2022-07-28T07:19:33.012Z,9.83
2022-07-28T07:20:51.189Z,9.60
2022-07-28T07:24:01.943Z,9.91
2022-07-28T07:27:14.084Z,9.72
2022-07-28T07:28:33.473Z,9.75
2022-07-28T07:29:53.253Z,10.02
2022-07-28T07:31:12.431Z,10.04
2022-07-28T07:32:31.267Z,9.86
2022-07-28T07:33:48.839Z,9.92
2022-07-28T07:35:07.726Z,10.23
2022-07-28T07:36:24.490Z,10.48
2022-07-28T07:37:42.589Z,10.47
2022-07-28T07:39:04.646Z,9.99
2022-07-28T07:40:24.398Z,10.38
2022-07-28T07:41:47.125Z,10.37
2022-07-28T07:43:09.134Z,10.74
2022-07-28T07:44:29.445Z,11.04
2022-07-28T07:47:39.871Z,10.85
2022-07-28T07:48:57.946Z,10.63
2022-07-28T07:50:18.160Z,10.69
2022-07-28T07:51:38.484Z,10.88
2022-07-28T07:52:58.770Z,11.48
2022-07-28T07:54:18.904Z,10.84
2022-07-28T07:55:42.553Z,11.03
2022-07-28T07:57:02.097Z,11.39
2022-07-28T07:58:20.186Z,11.30
2022-07-28T07:59:39.023Z,11.48
2022-07-28T08:00:58.365Z,11.67
2022-07-28T08:02:16.219Z,11.65
2022-07-28T08:03:35.036Z,12.03
2022-07-28T08:04:54.971Z,11.77
2022-07-28T08:06:14.677Z,12.07
2022-07-28T08:07:34.887Z,12.33
2022-07-28T08:08:52.208Z,12.19
2022-07-28T08:10:10.538Z,12.05
2022-07-28T08:11:31.226Z,12.15
2022-07-28T08:12:50.079Z,12.60
2022-07-28T08:14:09.202Z,12.14
2022-07-28T08:15:32.112Z,12.55
2022-07-28T08:16:49.452Z,12.70
2022-07-28T08:18:07.714Z,12.92
2022-07-28T08:19:25.335Z,13.18
2022-07-28T08:20:43.455Z,13.25
2022-07-28T08:22:01.887Z,13.23
2022-07-28T08:23:26.160Z,12.93
2022-07-28T08:24:48.058Z,12.67
2022-07-28T08:26:10.137Z,12.78
2022-07-28T08:27:35.043Z,12.67
2022-07-28T08:29:01.315Z,12.39
2022-07-28T08:30:32.334Z,12.48
2022-07-28T08:31:51.781Z,12.85
2022-07-28T08:33:09.301Z,13.24
2022-07-28T08:34:31.553Z,13.00
2022-07-28T08:35:52.892Z,13.28
2022-07-28T08:37:16.651Z,12.92
2022-07-28T08:38:35.501Z,13.00
2022-07-28T08:39:54.654Z,12.98
2022-07-28T08:41:14.342Z,13.13
2022-07-28T08:42:32.804Z,13.12
2022-07-28T08:43:51.126Z,13.19
2022-07-28T08:45:08.518Z,13.11
2022-07-28T08:46:26.465Z,13.43
2022-07-28T08:48:07.387Z,14.01
2022-07-28T08:49:10.283Z,13.86
2022-07-28T08:50:27.741Z,14.00
2022-07-28T08:51:46.104Z,13.55
2022-07-28T08:53:04.674Z,14.25
2022-07-28T08:54:24.933Z,13.75
2022-07-28T08:55:43.252Z,14.20
2022-07-28T08:57:00.683Z,13.93
2022-07-28T08:58:18.185Z,14.06
2022-07-28T08:59:35.623Z,13.81
2022-07-28T09:00:53.263Z,14.25
2022-07-28T09:02:10.669Z,13.75
2022-07-28T09:03:30.060Z,13.59
2022-07-28T09:04:47.709Z,14.14
2022-07-28T09:06:06.232Z,13.88
2022-07-28T09:07:23.920Z,13.84
2022-07-28T09:08:43.622Z,13.95
2022-07-28T09:10:03.174Z,14.40
2022-07-28T09:11:20.603Z,14.38
2022-07-28T09:12:38.053Z,14.46
2022-07-28T09:13:56.720Z,14.48
2022-07-28T09:15:13.170Z,15.12
2022-07-28T09:16:30.678Z,15.20
2022-07-28T09:17:48.126Z,15.28
2022-07-28T09:19:05.503Z,14.65
2022-07-28T09:20:22.876Z,14.59
2022-07-28T09:21:40.323Z,14.65
2022-07-28T09:22:57.807Z,15.41
2022-07-28T09:24:15.683Z,15.36
2022-07-28T09:25:34.275Z,15.41
2022-07-28T09:26:51.616Z,15.42
2022-07-28T09:28:09.095Z,15.13
2022-07-28T09:29:26.560Z,15.50
2022-07-28T09:30:54.160Z,15.21
2022-07-28T09:32:15.101Z,15.08
2022-07-28T09:33:41.731Z,15.77
2022-07-28T09:34:57.720Z,15.88
2022-07-28T09:36:16.646Z,15.44
2022-07-28T09:37:35.719Z,15.51
2022-07-28T09:38:53.069Z,15.53
2022-07-28T09:40:12.235Z,15.60
2022-07-28T09:41:32.134Z,16.26
2022-07-28T09:42:49.475Z,15.92
2022-07-28T09:44:09.353Z,16.17
2022-07-28T09:45:26.003Z,16.07
2022-07-28T09:46:43.737Z,16.17
2022-07-28T09:49:54.312Z,16.67
2022-07-28T09:51:13.190Z,16.38
2022-07-28T09:52:36.881Z,16.08
2022-07-28T09:54:01.123Z,16.39
2022-07-28T09:55:24.273Z,16.28
2022-07-28T09:56:41.600Z,16.49
2022-07-28T09:57:58.973Z,16.34
2022-07-28T09:59:19.865Z,16.34
2022-07-28T10:00:38.533Z,16.22
2022-07-28T10:01:57.783Z,16.66
2022-07-28T10:03:18.661Z,17.10
2022-07-28T10:04:36.219Z,16.84
2022-07-28T10:05:55.938Z,17.17
2022-07-28T10:07:21.631Z,17.25
2022-07-28T10:08:41.783Z,17.25
2022-07-28T10:09:59.604Z,17.39
2022-07-28T10:11:17.062Z,17.23
2022-07-28T10:12:37.461Z,18.04
2022-07-28T10:13:55.704Z,17.54
2022-07-28T10:15:13.107Z,17.84
2022-07-28T10:16:30.594Z,17.98
2022-07-28T10:17:47.163Z,17.33
2022-07-28T10:19:04.866Z,18.14
2022-07-28T10:20:22.302Z,18.34
2022-07-28T10:21:39.705Z,18.53
2022-07-28T10:22:58.709Z,18.84
2022-07-28T10:24:18.203Z,18.46
2022-07-28T10:25:36.527Z,18.66
2022-07-28T10:26:55.458Z,18.38
2022-07-28T10:28:15.682Z,18.57
2022-07-28T10:29:34.098Z,18.86
2022-07-28T10:30:53.107Z,19.23
2022-07-28T10:32:13.855Z,18.84
2022-07-28T10:33:30.700Z,19.26
2022-07-28T10:34:47.252Z,19.46
2022-07-28T10:36:05.264Z,19.21
2022-07-28T10:37:23.121Z,19.92
2022-07-28T10:38:42.357Z,19.42
2022-07-28T10:40:00.404Z,19.11
2022-07-28T10:41:20.706Z,19.21
2022-07-28T10:42:39.025Z,19.36
2022-07-28T10:46:05.049Z,19.37
2022-07-28T10:47:18.300Z,20.28
2022-07-28T10:48:35.206Z,19.50
2022-07-28T10:49:54.702Z,19.82
2022-07-28T10:51:15.750Z,19.81
2022-07-28T10:52:47.280Z,19.91
2022-07-28T10:54:07.053Z,20.35
2022-07-28T10:55:32.488Z,20.12
2022-07-28T10:56:49.928Z,19.80
2022-07-28T10:58:11.588Z,20.05
2022-07-28T10:59:30.554Z,20.35
2022-07-28T11:01:04.720Z,20.35
2022-07-28T11:02:13.345Z,20.29
2022-07-28T11:03:33.134Z,20.79
2022-07-28T11:04:50.888Z,21.11
2022-07-28T11:06:07.778Z,21.41
2022-07-28T11:07:26.997Z,21.73
2022-07-28T11:08:47.685Z,21.06
2022-07-28T11:10:09.839Z,20.85
2022-07-28T11:11:28.838Z,21.42
2022-07-28T11:12:46.386Z,20.76
2022-07-28T11:14:03.934Z,20.94
2022-07-28T11:15:23.929Z,22.08
2022-07-28T11:16:40.562Z,21.77
2022-07-28T11:17:59.423Z,21.97
2022-07-28T11:21:08.110Z,21.01
2022-07-28T11:22:25.111Z,21.81
2022-07-28T11:23:46.700Z,21.12
2022-07-28T11:25:19.483Z,21.80
2022-07-28T11:26:28.774Z,21.89
2022-07-28T11:27:47.903Z,21.86
2022-07-28T11:29:07.927Z,22.20
2022-07-28T11:30:24.967Z,22.06
2022-07-28T11:31:45.153Z,22.36
2022-07-28T11:33:01.695Z,22.55
2022-07-28T11:34:19.736Z,22.87
2022-07-28T11:35:38.152Z,22.23
2022-07-28T11:36:55.581Z,22.26
2022-07-28T11:38:14.511Z,22.40
2022-07-28T11:39:41.258Z,23.04
2022-07-28T11:40:55.502Z,23.34
2022-07-28T11:42:12.389Z,23.59
2022-07-28T11:43:36.426Z,23.66
2022-07-28T11:44:56.052Z,23.09
2022-07-28T11:46:15.776Z,23.78
2022-07-28T11:47:34.554Z,23.71
2022-07-28T11:48:52.652Z,24.77
2022-07-28T11:50:10.434Z,24.13
2022-07-28T11:51:27.956Z,24.68
2022-07-28T11:52:46.494Z,24.19
2022-07-28T11:54:03.955Z,24.56
2022-07-28T11:55:55.723Z,24.82
2022-07-28T11:56:45.704Z,24.83
2022-07-28T11:58:05.155Z,25.16
2022-07-28T11:59:24.014Z,24.82
2022-07-28T12:00:47.623Z,25.36
2022-07-28T12:02:06.180Z,25.33
2022-07-28T12:05:15.467Z,26.38
2022-07-28T12:08:28.963Z,26.07
2022-07-28T12:09:47.705Z,25.92
2022-07-28T12:11:07.488Z,25.99
2022-07-28T12:12:25.490Z,25.65
2022-07-28T12:13:43.865Z,25.45
2022-07-28T12:15:06.712Z,25.67
2022-07-28T12:16:24.391Z,25.51
2022-07-28T12:17:41.759Z,25.72
2022-07-28T12:19:00.613Z,25.95
2022-07-28T12:20:19.168Z,25.85
2022-07-28T12:21:46.370Z,26.07
2022-07-28T12:23:03.044Z,25.69
2022-07-28T12:24:22.238Z,25.84
2022-07-28T12:25:41.793Z,26.49
2022-07-28T12:27:01.291Z,26.50
2022-07-28T12:28:19.742Z,27.37
2022-07-28T12:29:38.021Z,27.00
2022-07-28T12:30:57.107Z,27.22
2022-07-28T12:32:15.901Z,27.56
2022-07-28T12:33:38.626Z,28.02
2022-07-28T12:34:56.108Z,27.55
2022-07-28T12:36:15.168Z,27.72
2022-07-28T12:37:33.577Z,28.15
2022-07-28T12:38:52.883Z,27.94
2022-07-28T12:40:11.493Z,27.90
2022-07-28T12:41:29.166Z,28.46
2022-07-28T12:42:52.130Z,28.33
2022-07-28T12:44:10.878Z,28.83
2022-07-28T12:45:30.215Z,28.58
2022-07-28T12:46:48.059Z,28.73
2022-07-28T12:48:05.365Z,29.08
2022-07-28T12:49:23.800Z,28.48
2022-07-28T12:50:41.186Z,28.54
2022-07-28T12:52:00.422Z,28.46
2022-07-28T12:53:19.264Z,28.32
2022-07-28T12:54:38.161Z,28.42
2022-07-28T12:55:57.210Z,28.95
2022-07-28T12:57:15.957Z,28.63
2022-07-28T12:58:33.338Z,29.34
2022-07-28T12:59:50.852Z,28.59
2022-07-28T13:01:08.765Z,29.06
2022-07-28T13:02:26.230Z,29.24
2022-07-28T13:03:43.967Z,29.24
2022-07-28T13:05:01.422Z,29.27
2022-07-28T13:06:20.631Z,29.74
2022-07-28T13:07:40.726Z,29.72
2022-07-28T13:08:59.569Z,29.80
2022-07-28T13:10:17.344Z,29.82
2022-07-28T13:11:45.846Z,29.60
2022-07-28T13:12:59.793Z,29.91
2022-07-28T13:14:18.135Z,30.20
2022-07-28T13:15:37.314Z,30.27
2022-07-28T13:16:56.642Z,30.13
2022-07-28T13:18:13.563Z,29.91
2022-07-28T13:19:33.026Z,29.66
2022-07-28T13:20:51.318Z,29.61
2022-07-28T13:22:09.515Z,29.84
2022-07-28T13:23:29.090Z,29.44
2022-07-28T13:24:45.648Z,29.38
2022-07-28T13:26:03.284Z,30.08
2022-07-28T13:27:20.683Z,29.49
2022-07-28T13:28:37.182Z,30.04
2022-07-28T13:29:55.352Z,30.17
2022-07-28T13:31:17.633Z,30.58
2022-07-28T13:32:36.274Z,30.42
2022-07-28T13:33:57.197Z,30.53
2022-07-28T13:35:15.174Z,30.69
2022-07-28T13:36:36.324Z,30.69
2022-07-28T13:37:52.866Z,30.35
2022-07-28T13:39:09.458Z,30.65
2022-07-28T13:40:26.831Z,30.67
2022-07-28T13:41:57.114Z,30.98
2022-07-28T13:43:05.947Z,30.99
2022-07-28T13:44:30.045Z,30.93
2022-07-28T13:45:47.622Z,31.06
2022-07-28T13:47:05.847Z,31.42
2022-07-28T13:48:30.212Z,31.16
2022-07-28T13:49:46.784Z,31.39
2022-07-28T13:51:03.402Z,30.95
2022-07-28T13:52:32.902Z,31.48
2022-07-28T13:53:47.303Z,31.82
2022-07-28T13:55:04.989Z,31.73
2022-07-28T13:56:24.644Z,31.52
2022-07-28T13:57:43.624Z,31.27
2022-07-28T13:59:01.541Z,31.56
2022-07-28T14:00:22.641Z,31.99
2022-07-28T14:01:40.336Z,32.42
2022-07-28T14:02:58.644Z,32.53
2022-07-28T14:04:17.479Z,32.55
2022-07-28T14:05:36.277Z,32.74
2022-07-28T14:06:53.963Z,32.87
2022-07-28T14:08:11.188Z,32.65
2022-07-28T14:09:28.902Z,33.35
2022-07-28T14:10:48.309Z,33.52
2022-07-28T14:12:04.911Z,33.51
2022-07-28T14:13:23.230Z,33.28
2022-07-28T14:14:48.938Z,33.31
2022-07-28T14:16:14.215Z,33.28
2022-07-28T14:17:42.621Z,33.42
2022-07-28T14:18:57.449Z,33.71
2022-07-28T14:20:15.887Z,33.35
2022-07-28T14:21:36.982Z,33.59
2022-07-28T14:22:56.278Z,33.56
2022-07-28T14:24:16.556Z,33.63
2022-07-28T14:25:48.818Z,33.62
2022-07-28T14:26:57.121Z,33.25
2022-07-28T14:28:15.737Z,33.84
2022-07-28T14:29:34.001Z,33.12
2022-07-28T14:30:52.889Z,33.50
2022-07-28T14:32:10.223Z,33.63
2022-07-28T14:33:28.679Z,34.10
2022-07-28T14:34:46.232Z,33.75
2022-07-28T14:36:04.672Z,34.43
2022-07-28T14:37:22.022Z,34.58
2022-07-28T14:38:59.792Z,34.71
2022-07-28T14:40:07.397Z,34.36
2022-07-28T14:41:26.422Z,34.74
2022-07-28T14:42:45.315Z,34.14
2022-07-28T14:44:03.286Z,34.80
2022-07-28T14:45:19.828Z,34.65
2022-07-28T14:46:38.185Z,34.62
2022-07-28T14:47:55.753Z,35.12
2022-07-28T14:49:16.976Z,35.14
2022-07-28T14:50:38.158Z,34.71
2022-07-28T14:52:00.997Z,35.35
2022-07-28T14:53:23.742Z,35.03
2022-07-28T14:54:46.374Z,35.45
2022-07-28T14:56:04.860Z,35.62
2022-07-28T14:57:21.452Z,35.90
2022-07-28T14:58:43.601Z,35.82
2022-07-28T15:00:01.161Z,36.66
2022-07-28T15:01:20.334Z,36.51
2022-07-28T15:02:39.246Z,36.40
2022-07-28T15:03:59.830Z,36.64
2022-07-28T15:05:23.135Z,36.48
2022-07-28T15:06:40.946Z,36.60
2022-07-28T15:07:59.267Z,36.64
2022-07-28T15:09:17.585Z,36.69
2022-07-28T15:10:35.997Z,37.18
2022-07-28T15:11:54.465Z,37.17
2022-07-28T15:13:13.148Z,37.56
2022-07-28T15:14:29.570Z,36.89
2022-07-28T15:15:46.974Z,37.27
2022-07-28T15:17:05.360Z,36.92
2022-07-28T15:18:21.848Z,36.78
2022-07-28T15:19:41.372Z,36.69
2022-07-28T15:20:59.712Z,37.01
2022-07-28T15:22:17.472Z,36.57
2022-07-28T15:23:34.843Z,36.97
2022-07-28T15:24:52.473Z,37.28
2022-07-28T15:26:08.975Z,37.83
2022-07-28T15:27:33.012Z,36.86
2022-07-28T15:28:50.484Z,36.67
2022-07-28T15:30:08.281Z,37.14
2022-07-28T15:31:27.044Z,36.96
2022-07-28T15:32:56.338Z,37.04
2022-07-28T15:34:12.011Z,37.12
2022-07-28T15:35:57.980Z,37.03
2022-07-28T15:36:54.204Z,37.31
2022-07-28T15:38:15.298Z,37.53
2022-07-28T15:39:33.639Z,37.76
2022-07-28T15:40:52.893Z,37.50
2022-07-28T15:42:11.400Z,37.46
2022-07-28T15:43:30.090Z,37.81
2022-07-28T15:44:48.421Z,37.65
2022-07-28T15:46:06.820Z,37.61
2022-07-28T15:47:24.227Z,37.64
2022-07-28T15:48:42.694Z,38.00
2022-07-28T15:50:00.398Z,37.55
2022-07-28T15:51:22.596Z,38.41
2022-07-28T15:52:42.119Z,37.79
2022-07-28T15:53:59.415Z,37.94
2022-07-28T15:55:17.776Z,37.76
2022-07-28T15:56:36.396Z,37.52
2022-07-28T15:57:54.787Z,37.98
2022-07-28T15:59:13.122Z,37.90
2022-07-28T16:00:30.432Z,38.25
2022-07-28T16:01:48.770Z,38.08
2022-07-28T16:03:08.288Z,38.15
2022-07-28T16:04:26.648Z,38.33
2022-07-28T16:05:44.821Z,38.30
2022-07-28T16:07:02.633Z,38.40
2022-07-28T16:08:22.460Z,38.23
2022-07-28T16:09:45.878Z,38.12
2022-07-28T16:11:04.795Z,38.73
2022-07-28T16:12:23.124Z,38.33
2022-07-28T16:13:41.506Z,39.06
2022-07-28T16:15:00.123Z,38.94
2022-07-28T16:16:18.552Z,38.72
2022-07-28T16:17:37.665Z,38.61
2022-07-28T16:18:59.024Z,38.82
2022-07-28T16:20:15.524Z,39.02
2022-07-28T16:21:33.050Z,38.97
2022-07-28T16:22:49.565Z,38.98
2022-07-28T16:24:06.972Z,39.38
2022-07-28T16:25:25.339Z,38.52
2022-07-28T16:26:43.722Z,38.97
2022-07-28T16:28:00.206Z,38.98
2022-07-28T16:29:18.599Z,38.86
2022-07-28T16:30:35.013Z,38.52
2022-07-28T16:31:53.409Z,38.66
2022-07-28T16:33:12.192Z,38.84
2022-07-28T16:34:31.883Z,38.68
2022-07-28T16:35:48.394Z,39.07
2022-07-28T16:37:06.776Z,39.17
2022-07-28T16:38:25.108Z,39.16
2022-07-28T16:39:43.746Z,39.52
2022-07-28T16:41:02.112Z,39.01
2022-07-28T16:42:20.466Z,39.02
2022-07-28T16:43:44.403Z,38.77
2022-07-28T16:45:01.480Z,39.59
2022-07-28T16:46:20.679Z,39.24
2022-07-28T16:47:39.031Z,39.45
2022-07-28T16:48:57.415Z,39.45
2022-07-28T16:50:16.708Z,39.32
2022-07-28T16:51:35.095Z,39.55
2022-07-28T16:52:53.791Z,39.68
2022-07-28T16:54:12.431Z,39.54
2022-07-28T16:55:31.243Z,39.75
2022-07-28T16:56:49.548Z,39.95
2022-07-28T16:58:08.387Z,39.86
2022-07-28T16:59:25.003Z,39.76
2022-07-28T17:00:46.261Z,39.60
2022-07-28T17:02:04.675Z,39.22
2022-07-28T17:03:23.067Z,39.87
2022-07-28T17:04:41.447Z,39.46
2022-07-28T17:05:58.149Z,39.40
2022-07-28T17:07:16.458Z,39.46
2022-07-28T17:08:33.109Z,39.44
2022-07-28T17:09:51.469Z,39.38
2022-07-28T17:11:09.810Z,39.39
2022-07-28T17:12:28.424Z,39.80
2022-07-28T17:13:46.801Z,38.80
2022-07-28T17:15:03.161Z,38.87
2022-07-28T17:16:21.600Z,39.39
2022-07-28T17:17:40.054Z,39.30
2022-07-28T17:19:03.163Z,39.09
2022-07-28T17:20:21.527Z,39.13
2022-07-28T17:21:41.955Z,39.15